»·PEaware :: N573HA KBFL-KLAS

N573HA :: KBFL-KLAS

FLIGHT INFORMATION

Flight Status: Arrived
Operator: Privately registered:
United States
More flights under this callsign
Pilot: Ravi V. (22543)
Aircraft: CESSNA 172 SKYHAWK
(C172)
More flights by this aircraft type
Origin: KBFL Meadows
United States
Destination: KLAS McCarran Intl
United States
More flights between these airports :: More routes between these airports
Route: +MEADO3 PMD HEC CRESO4
File this flight plan on PilotEdge
Remarks: Sample flight plan
Altitude:
(Current/Filed)
11,000ft
Speed:
(Current/Filed)
110kts
Departed: 12-Jan-19 12:29 PM
Arrived: 12-Jan-19 03:02 PM
Distance/Time
Traveled:
195nm/2:33
Distance/Time
To Go:
Arrived

Flight Plot

Page will automatically refresh every two minutes.

Flight plan parsing failed; only flown route is shown


Map Options




Map Legend


Flown Route
Filed Route
Departure Airport
Arrival Airport
Navaid (VOR, NDB)
Fix

Horizontal Profiles

Position Reports

Time Latitude Longitude Heading Altitude Ground
Speed
12-Jan-19 12:05 35.429367 -119.046106 226 510ft 0kts
12-Jan-19 12:06 35.429367 -119.046106 226 510ft 0kts
12-Jan-19 12:07 35.429367 -119.046106 226 510ft 0kts
12-Jan-19 12:08 35.429367 -119.046106 226 510ft 0kts
12-Jan-19 12:09 35.429367 -119.046106 226 510ft 0kts
12-Jan-19 12:10 35.429367 -119.046106 226 510ft 0kts
12-Jan-19 12:11 35.429367 -119.046106 226 510ft 0kts
12-Jan-19 12:12 35.429367 -119.046106 226 510ft 0kts
12-Jan-19 12:13 35.429367 -119.046106 226 510ft 0kts
12-Jan-19 12:14 35.429367 -119.046106 226 510ft 0kts
12-Jan-19 12:15 35.429367 -119.046106 226 510ft 0kts
12-Jan-19 12:16 35.429367 -119.046106 226 510ft 0kts
12-Jan-19 12:17 35.429367 -119.046106 226 510ft 0kts
12-Jan-19 12:18 35.429367 -119.046106 226 510ft 0kts
12-Jan-19 12:19 35.429367 -119.046106 226 510ft 0kts
12-Jan-19 12:20 35.429367 -119.046106 226 510ft 0kts
12-Jan-19 12:21 35.429367 -119.046106 226 510ft 0kts
12-Jan-19 12:22 35.429367 -119.046106 226 510ft 0kts
12-Jan-19 12:23 35.428248 -119.047007 161 510ft 7kts
12-Jan-19 12:24 35.426330 -119.044896 137 510ft 6kts
12-Jan-19 12:25 35.425751 -119.044727 214 510ft 0kts
12-Jan-19 12:26 35.425751 -119.044727 214 510ft 0kts
12-Jan-19 12:27 35.425606 -119.046194 305 510ft 17kts
12-Jan-19 12:28 35.440191 -119.059397 320 1230ft 74kts
12-Jan-19 12:29 35.457235 -119.074292 325 2196ft 78kts
12-Jan-19 12:30 35.476449 -119.090364 316 3053ft 92kts
12-Jan-19 12:31 35.499654 -119.117468 316 3100ft 121kts
12-Jan-19 12:32 35.525117 -119.145529 317 3082ft 119kts
12-Jan-19 12:33 35.551352 -119.171897 322 3167ft 123kts
12-Jan-19 12:34 35.579467 -119.199368 315 3018ft 130kts
12-Jan-19 12:35 35.570379 -119.216641 140 3968ft 81kts
12-Jan-19 12:36 35.554006 -119.199982 126 4881ft 83kts
12-Jan-19 12:37 35.536919 -119.180972 143 5757ft 84kts
12-Jan-19 12:38 35.519404 -119.164308 145 6530ft 83kts
12-Jan-19 12:39 35.501194 -119.145134 135 7293ft 85kts
12-Jan-19 12:40 35.485336 -119.122636 125 7982ft 89kts
12-Jan-19 12:41 35.471193 -119.096493 133 8053ft 128kts
12-Jan-19 12:42 35.451632 -119.071741 137 8974ft 80kts
12-Jan-19 12:43 35.434609 -119.050965 138 9562ft 85kts
12-Jan-19 12:44 35.417579 -119.029240 134 10196ft 85kts
12-Jan-19 12:45 35.401287 -119.009104 141 10778ft 82kts
12-Jan-19 12:46 35.382733 -118.990413 141 11114ft 100kts
12-Jan-19 12:47 35.360656 -118.966122 135 11110ft 109kts
12-Jan-19 12:48 35.339597 -118.939084 134 11109ft 109kts
12-Jan-19 12:49 35.318799 -118.912579 135 11109ft 107kts
12-Jan-19 12:50 35.297826 -118.886084 134 11109ft 108kts
12-Jan-19 12:51 35.276526 -118.859446 134 11018ft 111kts
12-Jan-19 12:52 35.254591 -118.833868 135 11016ft 107kts
12-Jan-19 12:53 35.234210 -118.807895 133 11016ft 105kts
12-Jan-19 12:54 35.214034 -118.782368 133 11016ft 104kts
12-Jan-19 12:55 35.193891 -118.757056 133 11016ft 104kts
12-Jan-19 12:56 35.173276 -118.732384 135 11016ft 103kts
12-Jan-19 12:57 35.152438 -118.708026 134 11016ft 103kts
12-Jan-19 12:58 35.131604 -118.683743 134 11016ft 103kts
12-Jan-19 12:59 35.111040 -118.659272 131 11016ft 103kts
12-Jan-19 13:00 35.091418 -118.633797 131 11015ft 103kts
12-Jan-19 13:01 35.071735 -118.608343 131 11015ft 103kts
12-Jan-19 13:02 35.052836 -118.584201 131 10997ft 104kts
12-Jan-19 13:03 35.032102 -118.557888 131 10997ft 103kts
12-Jan-19 13:04 35.012129 -118.532567 133 10997ft 103kts
12-Jan-19 13:05 34.991941 -118.507382 135 10999ft 104kts
12-Jan-19 13:06 34.971511 -118.482039 136 11008ft 105kts
12-Jan-19 13:07 34.950779 -118.456381 137 11010ft 107kts
12-Jan-19 13:08 34.929778 -118.430425 138 11013ft 108kts
12-Jan-19 13:09 34.908153 -118.403681 140 11018ft 114kts
12-Jan-19 13:10 34.886433 -118.376950 140 11024ft 119kts
12-Jan-19 13:11 34.863433 -118.348579 140 11026ft 122kts
12-Jan-19 13:12 34.839667 -118.319281 139 11027ft 122kts
12-Jan-19 13:13 34.815644 -118.289650 140 11027ft 122kts
12-Jan-19 13:14 34.791593 -118.260124 140 11026ft 122kts
12-Jan-19 13:15 34.767613 -118.230671 140 11025ft 123kts
12-Jan-19 13:16 34.743591 -118.201194 140 11024ft 123kts
12-Jan-19 13:17 34.719503 -118.171637 140 11022ft 123kts
12-Jan-19 13:18 34.695910 -118.142719 140 11021ft 123kts
12-Jan-19 13:19 34.675947 -118.118280 140 11020ft 123kts
12-Jan-19 13:20 34.651754 -118.088680 140 11018ft 123kts
12-Jan-19 13:21 34.634952 -118.053312 92 11018ft 132kts
12-Jan-19 13:22 34.637992 -118.008350 87 11017ft 133kts
12-Jan-19 13:23 34.642563 -117.963265 86 11016ft 134kts
12-Jan-19 13:24 34.647393 -117.918234 85 11015ft 134kts
12-Jan-19 13:25 34.652286 -117.873101 85 11014ft 134kts
12-Jan-19 13:26 34.657172 -117.827989 85 11011ft 134kts
12-Jan-19 13:28 34.662539 -117.778265 85 10991ft 135kts
12-Jan-19 13:29 34.667436 -117.732925 86 10976ft 134kts
12-Jan-19 13:30 34.672142 -117.688979 87 10955ft 129kts
12-Jan-19 13:31 34.676778 -117.645501 87 10938ft 129kts
12-Jan-19 13:32 34.681401 -117.602079 87 10921ft 130kts
12-Jan-19 13:33 34.686019 -117.558572 87 10918ft 129kts
12-Jan-19 13:34 34.690612 -117.515150 87 10918ft 129kts
12-Jan-19 13:35 34.695189 -117.471727 87 10918ft 129kts
12-Jan-19 13:36 34.699741 -117.428385 87 10918ft 129kts
12-Jan-19 13:37 34.704288 -117.384948 87 10918ft 129kts
12-Jan-19 13:38 34.708822 -117.341460 87 10918ft 129kts
12-Jan-19 13:39 34.713333 -117.298048 87 10918ft 129kts
12-Jan-19 13:40 34.717829 -117.254679 87 10918ft 129kts
12-Jan-19 13:41 34.722290 -117.211407 87 10918ft 129kts
12-Jan-19 13:42 34.726760 -117.167920 88 10921ft 129kts
12-Jan-19 13:43 34.731198 -117.124613 87 10924ft 129kts
12-Jan-19 13:44 34.735613 -117.081545 89 10940ft 128kts
12-Jan-19 13:45 34.739981 -117.038665 90 10958ft 126kts
12-Jan-19 13:46 34.744258 -116.996488 91 10975ft 124kts
12-Jan-19 13:47 34.748456 -116.954935 92 10991ft 122kts
12-Jan-19 13:48 34.752533 -116.914432 92 11006ft 119kts
12-Jan-19 13:48 34.755838 -116.881513 93 11017ft 116kts
12-Jan-19 13:49 34.759738 -116.842424 93 11019ft 115kts
12-Jan-19 13:50 34.763614 -116.803497 93 11019ft 115kts
12-Jan-19 13:51 34.767466 -116.764725 93 11019ft 115kts
12-Jan-19 13:53 34.771941 -116.719561 93 11019ft 115kts
12-Jan-19 13:54 34.775759 -116.680890 93 11019ft 115kts
12-Jan-19 13:54 34.778950 -116.648436 93 11019ft 115kts
12-Jan-19 13:55 34.782756 -116.609654 93 11019ft 115kts
12-Jan-19 13:56 34.786565 -116.570696 93 11019ft 115kts
12-Jan-19 13:57 34.790331 -116.532053 93 11019ft 115kts
12-Jan-19 13:58 34.794092 -116.493330 93 11018ft 115kts
12-Jan-19 13:59 34.804303 -116.455977 60 11019ft 128kts
12-Jan-19 14:00 34.828036 -116.423039 57 11018ft 129kts
12-Jan-19 14:01 34.852529 -116.390650 57 11020ft 130kts
12-Jan-19 14:02 34.877295 -116.358016 50 11001ft 133kts
12-Jan-19 14:03 34.902420 -116.325297 51 11009ft 132kts
12-Jan-19 14:04 34.927540 -116.292458 52 11017ft 130kts
12-Jan-19 14:05 34.952160 -116.260185 52 11021ft 128kts
12-Jan-19 14:06 34.976656 -116.228064 52 11024ft 126kts
12-Jan-19 14:07 35.000365 -116.196932 52 11024ft 124kts
12-Jan-19 14:08 35.023798 -116.166135 52 11022ft 122kts
12-Jan-19 14:09 35.046665 -116.136062 52 11019ft 120kts
12-Jan-19 14:10 35.069266 -116.106313 52 11019ft 119kts
12-Jan-19 14:11 35.091834 -116.076578 52 11019ft 119kts
12-Jan-19 14:12 35.114311 -116.046942 52 11017ft 119kts
12-Jan-19 14:13 35.137157 -116.016788 52 11017ft 119kts
12-Jan-19 14:14 35.159681 -115.987041 52 11017ft 119kts
12-Jan-19 14:15 35.182210 -115.957251 52 11017ft 119kts
12-Jan-19 14:16 35.204714 -115.927472 52 11017ft 119kts
12-Jan-19 14:17 35.227402 -115.897423 52 11020ft 119kts
12-Jan-19 14:18 35.249795 -115.867717 52 11024ft 118kts
12-Jan-19 14:19 35.272169 -115.838046 52 11029ft 118kts
12-Jan-19 14:20 35.294521 -115.808370 52 11033ft 118kts
12-Jan-19 14:21 35.316711 -115.778877 52 11038ft 118kts
12-Jan-19 14:22 35.338944 -115.749302 51 11042ft 117kts
12-Jan-19 14:23 35.361059 -115.719859 51 11047ft 117kts
12-Jan-19 14:24 35.383290 -115.690237 51 11051ft 117kts
12-Jan-19 14:25 35.405248 -115.660779 52 10972ft 116kts
12-Jan-19 14:26 35.425390 -115.630317 56 10754ft 114kts
12-Jan-19 14:27 35.447737 -115.601840 47 10356ft 115kts
12-Jan-19 14:28 35.469471 -115.573045 50 10101ft 109kts
12-Jan-19 14:29 35.489993 -115.545497 50 10096ft 110kts
12-Jan-19 14:30 35.512565 -115.517158 49 10169ft 116kts
12-Jan-19 14:31 35.531945 -115.484100 56 10140ft 120kts
12-Jan-19 14:32 35.553774 -115.453541 50 10203ft 119kts
12-Jan-19 14:33 35.578460 -115.425995 42 10248ft 120kts
12-Jan-19 14:34 35.606649 -115.403464 49 10273ft 119kts
12-Jan-19 14:35 35.626924 -115.370604 56 10182ft 123kts
12-Jan-19 14:36 35.648492 -115.336892 55 9956ft 129kts
12-Jan-19 14:37 35.671208 -115.304333 52 9884ft 121kts
12-Jan-19 14:38 35.691296 -115.272448 46 10003ft 118kts
12-Jan-19 14:39 35.715215 -115.244570 48 10069ft 118kts
12-Jan-19 14:40 35.735994 -115.213495 51 10089ft 118kts
12-Jan-19 14:41 35.757861 -115.183227 55 10104ft 118kts
12-Jan-19 14:42 35.780011 -115.153186 53 10122ft 118kts
12-Jan-19 14:43 35.802373 -115.122900 48 10120ft 120kts
12-Jan-19 14:44 35.825939 -115.092758 50 10066ft 122kts
12-Jan-19 14:45 35.850577 -115.063650 48 10041ft 123kts
12-Jan-19 14:46 35.871543 -115.034027 55 9519ft 108kts
12-Jan-19 14:47 35.892112 -115.006473 50 8637ft 109kts
12-Jan-19 14:48 35.912027 -114.978612 56 7776ft 108kts
12-Jan-19 14:49 35.932278 -114.951761 36 7064ft 109kts
12-Jan-19 14:50 35.958333 -114.933838 21 6794ft 110kts
12-Jan-19 14:51 35.987042 -114.921833 21 6202ft 110kts
12-Jan-19 14:52 36.016149 -114.911515 17 5527ft 108kts
12-Jan-19 14:53 36.045132 -114.900970 24 5091ft 109kts
12-Jan-19 14:54 36.067980 -114.912630 286 5121ft 124kts
12-Jan-19 14:55 36.071509 -114.954660 275 5110ft 117kts
12-Jan-19 14:56 36.074396 -114.993968 281 4463ft 113kts
12-Jan-19 14:57 36.073628 -115.032798 269 3733ft 114kts
12-Jan-19 14:58 36.073433 -115.069882 275 3154ft 93kts
12-Jan-19 14:59 36.073389 -115.099955 273 2802ft 85kts
12-Jan-19 15:00 36.073625 -115.124172 272 2292ft 62kts
12-Jan-19 15:01 36.073702 -115.135596 272 2185ft 20kts
12-Jan-19 15:02 36.074257 -115.135562 63 2185ft 2kts
12-Jan-19 15:03 36.078049 -115.133869 344 2185ft 10kts
12-Jan-19 15:04 36.080487 -115.136419 253 2185ft 2kts
12-Jan-19 15:05 36.073560 -115.114650 273 2546ft 64kts
12-Jan-19 15:06 36.073671 -115.132637 270 2185ft 26kts

Navigation Log

Ident Type
Flight plan parsing failed, navigation log unavailable